Time;durP1;ratioP1;P1;durP2;ratioP2;P2;SDS_P1;SDS_P2;PMS_P1;PMS_P2;Temp;Humidity;BMP_temperature;BMP_pressure;BME280_temperature;BME280_humidity;BME280_pressure;Samples;Min_cycle;Max_cycle;Signal;HPM_P1;HPM_P2
2021/01/06 00:04:58;;;;;;;43.85;19.85;;;;;;;1.12;100.00;99993.34;18518952;28;20050;-70
2021/01/06 00:14:00;;;;;;;42.05;19.08;;;;;;;1.04;100.00;99993.53;18519012;28;20047;-71
2021/01/06 00:23:01;;;;;;;38.30;19.17;;;;;;;0.96;100.00;99992.88;18525970;28;20074;-71
2021/01/06 00:32:02;;;;;;;39.10;18.88;;;;;;;0.96;100.00;100000.59;18517108;28;20050;-71
2021/01/06 00:41:05;;;;;;;41.92;20.15;;;;;;;0.97;100.00;100001.44;18517430;28;20078;-71
2021/01/06 00:50:06;;;;;;;36.90;18.35;;;;;;;0.95;100.00;99996.34;18517200;28;20462;-71
2021/01/06 00:59:07;;;;;;;36.80;18.00;;;;;;;0.93;100.00;99992.06;18515749;28;20046;-71
2021/01/06 01:08:09;;;;;;;34.35;17.45;;;;;;;0.88;100.00;99997.34;18514595;28;20039;-70
2021/01/06 01:17:10;;;;;;;37.35;18.05;;;;;;;0.93;100.00;99994.66;18514712;28;20042;-70
2021/01/06 01:26:12;;;;;;;35.78;17.88;;;;;;;0.93;100.00;99997.22;18512408;28;20068;-70
2021/01/06 01:35:15;;;;;;;38.63;19.20;;;;;;;0.98;100.00;100000.56;18513051;28;20050;-70
2021/01/06 01:44:16;;;;;;;;;;;;;;;0.92;100.00;100008.41;18513674;28;20054;-70
2021/01/06 01:53:22;;;;;;;37.90;16.25;;;;;;;0.84;100.00;100006.00;18513034;28;19922;-70
2021/01/06 02:02:40;;;;;;;40.65;18.83;;;;;;;0.92;100.00;100011.84;18511396;28;20047;-70
2021/01/06 02:11:46;;;;;;;36.75;17.92;;;;;;;0.95;100.00;100013.50;18512318;28;20049;-70
2021/01/06 02:21:06;;;;;;;33.70;16.17;;;;;;;0.99;100.00;100015.13;18511352;28;20035;-70
2021/01/06 02:30:10;;;;;;;33.78;17.02;;;;;;;0.89;100.00;100011.06;18510807;28;20047;-70
2021/01/06 02:39:10;;;;;;;37.33;17.58;;;;;;;0.88;100.00;100017.09;18511125;28;20547;-71
2021/01/06 02:48:11;;;;;;;32.75;16.25;;;;;;;0.76;100.00;100013.88;18511012;28;20070;-71
2021/01/06 02:57:14;;;;;;;34.22;17.02;;;;;;;0.78;100.00;100006.97;18511120;28;20050;-71
2021/01/06 03:06:21;;;;;;;36.17;16.08;;;;;;;0.80;100.00;99996.66;18521500;28;20073;-70
2021/01/06 03:15:26;;;;;;;32.53;16.35;;;;;;;0.76;100.00;99993.28;18523364;28;20042;-71
2021/01/06 03:24:32;;;;;;;33.47;15.20;;;;;;;0.76;100.00;99982.16;18522226;28;20522;-70
2021/01/06 03:33:54;;;;;;;33.08;16.13;;;;;;;0.76;100.00;99979.56;18521496;28;20051;-70
2021/01/06 03:42:57;;;;;;;35.15;16.45;;;;;;;0.80;100.00;99971.75;18521694;28;20561;-71
2021/01/06 03:52:08;;;;;;;33.00;15.43;;;;;;;0.74;100.00;99971.88;18520762;28;20048;-71
2021/01/06 04:01:37;;;;;;;34.08;16.05;;;;;;;0.81;100.00;99967.44;18519421;28;20075;-70
2021/01/06 04:10:46;;;;;;;31.98;14.98;;;;;;;0.86;100.00;99969.00;18518995;28;20094;-71
2021/01/06 04:20:15;;;;;;;33.38;15.30;;;;;;;0.88;100.00;99963.00;18519201;28;20427;-71
2021/01/06 04:29:17;;;;;;;30.45;14.50;;;;;;;0.86;100.00;99955.31;18507692;28;20067;-71
2021/01/06 04:38:21;;;;;;;31.10;15.15;;;;;;;0.81;100.00;99963.13;18516812;28;20046;-70
2021/01/06 04:47:41;;;;;;;33.20;15.90;;;;;;;0.78;100.00;99965.78;18517193;28;20071;-70
2021/01/06 04:56:50;;;;;;;32.35;14.75;;;;;;;0.91;100.00;99958.63;18517327;28;20073;-70
2021/01/06 05:06:13;;;;;;;30.17;15.30;;;;;;;0.90;100.00;99956.09;18514713;28;20483;-70
2021/01/06 05:15:19;;;;;;;30.60;14.48;;;;;;;0.83;100.00;99965.66;18514644;28;20047;-70
2021/01/06 05:24:30;;;;;;;28.40;14.30;;;;;;;0.93;100.00;99958.59;18514177;28;20061;-70
2021/01/06 05:33:37;;;;;;;31.20;15.55;;;;;;;0.96;100.00;99966.25;18513114;28;20499;-70
2021/01/06 05:42:54;;;;;;;30.80;14.23;;;;;;;0.91;100.00;99968.94;18509957;28;20077;-70
2021/01/06 05:51:58;;;;;;;26.80;13.50;;;;;;;0.89;100.00;99980.16;18512853;28;20553;-71
2021/01/06 06:01:20;;;;;;;23.77;13.07;;;;;;;0.94;100.00;99978.31;18512358;28;20086;-71
2021/01/06 06:10:42;;;;;;;28.88;14.63;;;;;;;1.01;100.00;99990.19;18512308;28;20491;-71
2021/01/06 06:20:01;;;;;;;26.05;13.85;;;;;;;0.90;100.00;99987.00;18511700;28;20495;-71
2021/01/06 06:29:19;;;;;;;27.88;14.43;;;;;;;0.86;100.00;99986.22;18511951;28;20070;-71
2021/01/06 06:38:33;;;;;;;33.28;16.95;;;;;;;0.88;100.00;99989.59;18520200;28;20054;-71
2021/01/06 06:48:01;;;;;;;34.45;17.13;;;;;;;0.78;100.00;99996.69;18525297;28;20070;-71
2021/01/06 06:57:09;;;;;;;28.35;14.02;;;;;;;0.95;100.00;100013.50;18524790;28;20077;-70
2021/01/06 07:06:12;;;;;;;27.27;13.57;;;;;;;0.92;100.00;100013.56;18517906;28;20129;-70
2021/01/06 07:15:41;;;;;;;26.10;13.03;;;;;;;0.92;100.00;100016.97;18528579;28;20046;-70
2021/01/06 07:24:49;;;;;;;30.42;14.25;;;;;;;0.99;100.00;100012.56;18526601;28;20071;-70
2021/01/06 07:33:56;;;;;;;32.33;14.40;;;;;;;0.95;100.00;100016.09;18527055;28;20047;-70
2021/01/06 07:43:06;;;;;;;29.95;13.63;;;;;;;1.09;100.00;100034.66;18526867;28;20563;-70
2021/01/06 07:52:31;;;;;;;33.72;15.57;;;;;;;1.05;100.00;100039.06;18525696;28;20081;-70
2021/01/06 08:01:46;;;;;;;32.28;15.13;;;;;;;1.05;100.00;100054.50;18525875;28;20118;-70
2021/01/06 08:10:48;;;;;;;34.63;14.35;;;;;;;1.08;100.00;100053.59;18525569;28;20522;-70
2021/01/06 08:20:02;;;;;;;31.10;14.65;;;;;;;1.08;100.00;100056.16;18524878;28;20039;-70
2021/01/06 08:29:14;;;;;;;29.00;14.80;;;;;;;1.00;100.00;100058.06;18512256;28;20081;-70
2021/01/06 08:38:32;;;;;;;30.63;15.27;;;;;;;0.98;100.00;100054.66;18512812;28;20519;-70
2021/01/06 08:47:36;;;;;;;29.38;14.88;;;;;;;1.02;100.00;100053.72;18512467;28;20074;-70
2021/01/06 08:56:37;;;;;;;33.50;16.17;;;;;;;1.10;100.00;100067.28;18511301;28;20077;-70
2021/01/06 09:06:00;;;;;;;29.80;15.27;;;;;;;1.14;100.00;100069.78;18519240;28;20070;-70
2021/01/06 09:15:06;;;;;;;30.33;14.32;;;;;;;1.21;100.00;100070.50;18519343;28;20043;-70
2021/01/06 09:24:44;;;;;;;25.83;13.95;;;;;;;1.27;100.00;100083.22;18500870;28;20070;-69
2021/01/06 09:33:45;;;;;;;26.75;12.18;;;;;;;1.36;100.00;100095.09;18439686;28;20106;-69
2021/01/06 09:42:56;;;;;;;25.27;11.27;;;;;;;1.27;100.00;100096.97;18516934;28;20062;-69
2021/01/06 09:52:02;;;;;;;23.77;12.65;;;;;;;1.30;100.00;100096.06;18517704;28;20051;-70
2021/01/06 10:01:19;;;;;;;27.30;14.05;;;;;;;1.26;100.00;100085.00;18516014;28;20529;-70
2021/01/06 10:10:24;;;;;;;24.60;12.68;;;;;;;1.29;100.00;100090.06;18514526;28;20131;-70
2021/01/06 10:19:37;;;;;;;27.63;13.25;;;;;;;1.24;100.00;100101.34;18511896;28;20492;-70
2021/01/06 10:28:46;;;;;;;;;;;;;;;1.26;100.00;100091.88;18516836;28;20082;-70
2021/01/06 10:37:47;;;;;;;29.90;15.13;;;;;;;1.30;100.00;100085.75;18514387;28;19953;-69
2021/01/06 10:47:31;;;;;;;27.30;13.70;;;;;;;1.30;100.00;100083.19;18500968;28;20125;-70
2021/01/06 10:56:32;;;;;;;30.23;15.02;;;;;;;1.50;100.00;100083.59;18514552;28;20046;-70
2021/01/06 11:05:38;;;;;;;34.20;15.63;;;;;;;1.62;100.00;100067.84;18512340;28;20070;-69
2021/01/06 11:15:08;;;;;;;32.58;16.73;;;;;;;1.73;100.00;100069.34;18518318;28;20042;-69
2021/01/06 11:24:48;;;;;;;33.05;15.90;;;;;;;1.78;100.00;100064.91;18506669;28;20472;-70
2021/01/06 11:33:56;;;;;;;35.75;15.70;;;;;;;2.02;100.00;100053.97;18507336;28;20039;-71
2021/01/06 11:43:17;;;;;;;33.08;14.10;;;;;;;1.97;100.00;100042.91;18519290;28;20047;-71
2021/01/06 11:52:39;;;;;;;31.15;13.27;;;;;;;2.05;100.00;100048.72;18523379;28;20459;-70
2021/01/06 12:02:04;;;;;;;25.75;12.85;;;;;;;1.81;100.00;100041.59;18524067;28;20050;-70
2021/01/06 12:11:18;;;;;;;24.90;12.77;;;;;;;1.69;100.00;100030.69;18524664;28;20430;-70
2021/01/06 12:20:30;;;;;;;28.33;14.10;;;;;;;1.92;100.00;100027.56;18522444;28;20050;-70
2021/01/06 12:29:56;;;;;;;30.20;14.10;;;;;;;2.03;100.00;100027.28;18522501;28;20053;-70
2021/01/06 12:39:26;;;;;;;31.98;16.23;;;;;;;2.18;100.00;100021.72;18520651;28;20089;-70
2021/01/06 12:48:33;;;;;;;31.25;15.00;;;;;;;2.15;100.00;100021.78;18521916;28;20051;-70
2021/01/06 12:57:48;;;;;;;25.55;11.40;;;;;;;2.00;100.00;100027.34;18521844;28;20074;-70
2021/01/06 13:06:56;;;;;;;30.83;13.77;;;;;;;2.15;100.00;100032.13;18519270;28;20046;-70
2021/01/06 13:16:14;;;;;;;27.27;13.80;;;;;;;2.28;100.00;100030.94;18521027;28;21443;-70
2021/01/06 13:25:24;;;;;;;25.50;12.25;;;;;;;2.25;100.00;100032.72;18520381;28;20085;-70
2021/01/06 13:34:32;;;;;;;26.00;12.48;;;;;;;2.25;100.00;100036.16;18517217;28;20047;-70
2021/01/06 13:43:51;;;;;;;29.70;13.07;;;;;;;2.30;100.00;100030.88;18517887;28;20043;-70
2021/01/06 13:53:12;;;;;;;27.77;14.23;;;;;;;2.40;100.00;100032.31;18516605;28;20047;-70
2021/01/06 14:02:25;;;;;;;25.30;11.82;;;;;;;2.41;100.00;100041.75;18504317;28;20043;-70
2021/01/06 14:11:46;;;;;;;24.73;12.40;;;;;;;2.40;100.00;100053.81;18513475;28;20042;-70
2021/01/06 14:21:04;;;;;;;26.20;11.27;;;;;;;2.45;100.00;100056.28;18510501;28;20038;-70
2021/01/06 14:30:24;;;;;;;22.05;10.68;;;;;;;2.21;100.00;100068.09;18515772;28;20074;-68
2021/01/06 14:39:26;;;;;;;20.30;10.48;;;;;;;2.24;100.00;100070.59;18518021;28;20078;-70
2021/01/06 14:48:36;;;;;;;15.35;8.02;;;;;;;2.01;100.00;100076.34;18517691;28;20666;-69
2021/01/06 14:57:44;;;;;;;17.23;8.20;;;;;;;2.04;100.00;100078.00;18521214;28;20047;-70
2021/01/06 15:06:53;;;;;;;14.07;7.82;;;;;;;1.92;100.00;100073.16;18527352;28;20546;-69
2021/01/06 15:16:08;;;;;;;15.88;8.02;;;;;;;2.04;100.00;100083.16;18527436;28;20081;-69
2021/01/06 15:25:21;;;;;;;21.77;10.77;;;;;;;1.81;100.00;100082.88;18522100;28;20046;-70
2021/01/06 15:34:28;;;;;;;15.23;8.07;;;;;;;1.88;100.00;100085.25;18521323;28;20047;-69
2021/01/06 15:43:50;;;;;;;14.65;8.00;;;;;;;1.80;100.00;100086.34;18518150;28;20491;-70
2021/01/06 15:53:20;;;;;;;15.10;8.23;;;;;;;1.79;100.00;100089.78;18524228;28;20141;-69
2021/01/06 16:02:28;;;;;;;16.73;8.38;;;;;;;1.74;100.00;100084.75;18522679;28;20077;-70
2021/01/06 16:11:30;;;;;;;16.20;8.43;;;;;;;1.75;100.00;100083.88;18524688;28;20043;-70
2021/01/06 16:20:35;;;;;;;14.52;7.78;;;;;;;1.64;100.00;100097.00;18523449;28;20881;-69
2021/01/06 16:29:40;;;;;;;17.17;8.55;;;;;;;1.75;100.00;100098.50;18524457;28;20051;-70
2021/01/06 16:38:41;;;;;;;15.02;8.60;;;;;;;1.70;100.00;100094.31;18519903;28;20043;-70
2021/01/06 16:47:42;;;;;;;18.15;9.43;;;;;;;1.67;100.00;100107.28;18521080;28;20054;-70
2021/01/06 16:56:49;;;;;;;20.45;10.57;;;;;;;1.68;100.00;100114.13;18520523;28;20469;-70
2021/01/06 17:05:58;;;;;;;20.92;11.93;;;;;;;1.66;100.00;100126.22;18518243;28;20117;-70
2021/01/06 17:15:00;;;;;;;20.58;11.15;;;;;;;1.62;100.00;100118.59;18518244;28;20475;-70
2021/01/06 17:24:04;;;;;;;20.80;11.50;;;;;;;1.71;100.00;100123.53;18517526;28;20487;-71
2021/01/06 17:33:19;;;;;;;19.77;11.82;;;;;;;1.62;100.00;100129.75;18518480;28;20502;-71
2021/01/06 17:42:20;;;;;;;19.70;11.10;;;;;;;1.64;100.00;100132.28;18514331;28;20053;-71
2021/01/06 17:51:21;;;;;;;21.15;11.05;;;;;;;1.65;100.00;100134.84;18518125;28;20089;-71
2021/01/06 18:00:23;;;;;;;21.75;12.30;;;;;;;1.73;100.00;100153.56;18515987;28;20042;-72
2021/01/06 18:09:24;;;;;;;22.58;12.27;;;;;;;1.75;100.00;100157.84;18518151;28;20059;-72
2021/01/06 18:18:25;;;;;;;23.52;13.68;;;;;;;1.73;100.00;100163.88;18513255;28;20043;-71
2021/01/06 18:27:27;;;;;;;30.25;16.95;;;;;;;1.75;100.00;100165.56;18516669;28;20050;-72
2021/01/06 18:36:36;;;;;;;24.65;13.73;;;;;;;1.77;100.00;100189.63;18525548;28;20046;-72
2021/01/06 18:45:37;;;;;;;24.73;15.20;;;;;;;1.73;100.00;100185.41;18529925;28;20142;-72
2021/01/06 18:54:49;;;;;;;25.63;13.95;;;;;;;1.75;100.00;100186.22;18529921;28;20055;-72
2021/01/06 19:03:54;;;;;;;26.55;14.52;;;;;;;1.78;100.00;100191.31;18529403;28;20054;-72
2021/01/06 19:12:59;;;;;;;23.50;13.57;;;;;;;1.77;100.00;100187.91;18529529;28;20051;-71
2021/01/06 19:22:02;;;;;;;30.13;15.27;;;;;;;1.76;100.00;100188.78;18525130;28;20077;-71
2021/01/06 19:31:04;;;;;;;27.02;15.23;;;;;;;1.74;100.00;100198.25;18521054;28;20042;-72
2021/01/06 19:40:05;;;;;;;31.50;16.55;;;;;;;1.71;100.00;100211.25;18517866;28;20495;-72
2021/01/06 19:49:16;;;;;;;39.33;20.60;;;;;;;1.71;100.00;100206.94;18525038;28;20047;-72
2021/01/06 19:58:20;;;;;;;32.72;19.52;;;;;;;1.72;100.00;100197.47;18521354;28;20522;-72
2021/01/06 20:07:22;;;;;;;36.08;19.73;;;;;;;1.70;100.00;100202.66;18523785;28;20047;-72
2021/01/06 20:16:23;;;;;;;36.08;19.65;;;;;;;1.70;100.00;100205.22;18523721;28;20042;-72
2021/01/06 20:25:24;;;;;;;35.90;18.80;;;;;;;1.70;100.00;100205.22;18523096;28;20051;-72
2021/01/06 20:34:25;;;;;;;34.60;17.33;;;;;;;1.73;100.00;100207.72;18522103;28;20527;-72
2021/01/06 20:43:26;;;;;;;35.00;18.50;;;;;;;1.65;100.00;100201.03;18522183;28;20503;-72
2021/01/06 20:52:29;;;;;;;35.20;19.08;;;;;;;1.78;100.00;100204.22;18522279;28;20656;-72
2021/01/06 21:01:32;;;;;;;37.13;19.00;;;;;;;1.63;100.00;100195.91;18519390;28;20081;-72
2021/01/06 21:10:35;;;;;;;52.20;23.57;;;;;;;1.61;100.00;100205.44;18521662;28;20046;-72
2021/01/06 21:19:38;;;;;;;42.53;21.70;;;;;;;1.57;100.00;100201.22;18521711;28;20053;-72
2021/01/06 21:28:39;;;;;;;36.65;19.75;;;;;;;1.60;100.00;100213.19;18519266;28;20309;-71
2021/01/06 21:37:41;;;;;;;39.08;21.40;;;;;;;1.59;100.00;100207.19;18514623;28;20042;-72
2021/01/06 21:46:42;;;;;;;36.85;19.27;;;;;;;1.61;100.00;100209.75;18515611;28;20047;-72
2021/01/06 21:55:42;;;;;;;42.67;23.17;;;;;;;1.58;100.00;100208.06;18517157;28;20669;-72
2021/01/06 22:04:43;;;;;;;39.28;21.17;;;;;;;1.57;100.00;100214.13;18512155;28;20072;-72
2021/01/06 22:13:44;;;;;;;43.72;22.52;;;;;;;1.58;100.00;100204.63;18512685;28;20046;-72
2021/01/06 22:22:45;;;;;;;40.30;22.15;;;;;;;1.53;100.00;100207.31;18499525;28;20074;-72
2021/01/06 22:31:46;;;;;;;39.63;19.98;;;;;;;1.58;100.00;100205.47;18506991;28;20051;-71
2021/01/06 22:40:47;;;;;;;39.88;21.00;;;;;;;1.58;100.00;100214.94;18517065;28;20520;-71
2021/01/06 22:49:48;;;;;;;40.20;20.48;;;;;;;1.55;100.00;100215.00;18515925;28;20164;-71
2021/01/06 22:58:50;;;;;;;39.88;19.98;;;;;;;1.57;100.00;100213.28;18519385;28;20047;-72
2021/01/06 23:07:52;;;;;;;40.53;20.33;;;;;;;1.57;100.00;100214.13;18507140;28;20514;-72
2021/01/06 23:16:53;;;;;;;41.22;21.02;;;;;;;1.56;100.00;100220.16;18517286;28;20043;-72
2021/01/06 23:25:54;;;;;;;37.40;19.52;;;;;;;1.57;100.00;100221.00;18507641;28;20075;-73
2021/01/06 23:34:56;;;;;;;39.13;20.83;;;;;;;1.57;100.00;100228.75;18524647;28;20411;-73
2021/01/06 23:43:58;;;;;;;45.13;21.75;;;;;;;1.53;100.00;100238.25;18500614;28;20077;-72
2021/01/06 23:52:59;;;;;;;44.58;22.08;;;;;;;1.57;100.00;100229.59;18529603;28;20078;-72
